createdAt,value
2022-10-14T00:01:20.949Z,101039.19
2022-10-14T00:03:49.846Z,101063.13
2022-10-14T00:06:23.783Z,101041.97
2022-10-14T00:08:51.713Z,101002.34
2022-10-14T00:11:25.160Z,101030.50
2022-10-14T00:14:07.879Z,101029.38
2022-10-14T00:16:38.271Z,100959.06
2022-10-14T00:19:06.743Z,100982.03
2022-10-14T00:21:36.965Z,101038.25
2022-10-14T00:24:05.922Z,100998.25
2022-10-14T00:26:36.830Z,101003.25
2022-10-14T00:29:08.045Z,100996.88
2022-10-14T00:31:36.023Z,100975.50
2022-10-14T00:34:04.172Z,101033.91
2022-10-14T00:36:32.212Z,100970.81
2022-10-14T00:39:00.037Z,100992.28
2022-10-14T00:41:31.967Z,101022.06
2022-10-14T00:44:11.885Z,101027.13
2022-10-14T00:46:41.947Z,101021.56
2022-10-14T00:49:10.026Z,101026.59
2022-10-14T00:51:39.664Z,101016.69
2022-10-14T00:54:08.414Z,101019.94
2022-10-14T00:56:37.262Z,101024.50
2022-10-14T00:59:08.798Z,101028.06
2022-10-14T01:01:36.942Z,100972.56
2022-10-14T01:04:05.249Z,101021.56
2022-10-14T01:06:36.020Z,101020.44
2022-10-14T01:09:12.818Z,101017.72
2022-10-14T01:12:16.283Z,101019.31
2022-10-14T01:15:00.114Z,101011.41
2022-10-14T01:17:35.204Z,101011.69
2022-10-14T01:20:09.003Z,101001.84
2022-10-14T01:23:14.037Z,101001.84
2022-10-14T01:26:00.667Z,100959.22
2022-10-14T01:29:22.744Z,101015.09
2022-10-14T01:32:17.265Z,101002.50
2022-10-14T01:34:52.662Z,100950.63
2022-10-14T01:37:25.362Z,100943.53
2022-10-14T01:39:59.705Z,100972.03
2022-10-14T01:42:34.591Z,100898.84
2022-10-14T01:45:09.763Z,100993.63
2022-10-14T01:47:40.879Z,100988.94
2022-10-14T01:50:18.473Z,100972.09
2022-10-14T01:52:54.884Z,100965.53
2022-10-14T01:55:26.914Z,100959.75
2022-10-14T01:57:57.846Z,100937.41
2022-10-14T02:00:26.180Z,100944.88
2022-10-14T02:02:53.718Z,100906.09
2022-10-14T02:05:23.829Z,100958.31
2022-10-14T02:08:39.344Z,100952.81
2022-10-14T02:11:17.307Z,100900.97
2022-10-14T02:13:46.698Z,100946.66
2022-10-14T02:16:38.900Z,100945.84
2022-10-14T02:19:25.442Z,100949.09
2022-10-14T02:22:02.022Z,100945.53
2022-10-14T02:24:51.556Z,100909.56
2022-10-14T02:27:22.255Z,100943.09
2022-10-14T02:29:52.414Z,100936.63
2022-10-14T02:32:23.110Z,100902.59
2022-10-14T02:34:54.830Z,100933.25
2022-10-14T02:37:23.965Z,100909.72
2022-10-14T02:40:11.557Z,100840.03
2022-10-14T02:42:41.649Z,100832.25
2022-10-14T02:45:11.977Z,100855.88
2022-10-14T02:47:39.864Z,100881.47
2022-10-14T02:50:09.469Z,100917.91
2022-10-14T02:52:37.185Z,100919.03
2022-10-14T02:55:05.436Z,100897.38
2022-10-14T02:57:33.302Z,100916.28
2022-10-14T03:00:01.013Z,100885.69
2022-10-14T03:02:30.123Z,100856.88
2022-10-14T03:04:59.358Z,100874.81
2022-10-14T03:07:27.059Z,100868.84
2022-10-14T03:09:57.065Z,100912.88
2022-10-14T03:12:25.688Z,100905.78
2022-10-14T03:14:55.966Z,100841.31
2022-10-14T03:17:25.914Z,100909.97
2022-10-14T03:19:56.394Z,100922.06
2022-10-14T03:22:26.362Z,100922.06
2022-10-14T03:24:55.443Z,100909.25
2022-10-14T03:27:35.511Z,100894.03
2022-10-14T03:30:08.622Z,100844.69
2022-10-14T03:32:41.379Z,100898.13
2022-10-14T03:35:15.685Z,100864.44
2022-10-14T03:37:46.046Z,100901.81
2022-10-14T03:40:15.868Z,100849.06
2022-10-14T03:42:43.905Z,100910.06
2022-10-14T03:45:11.733Z,100867.66
2022-10-14T03:47:41.089Z,100843.59
2022-10-14T03:50:09.115Z,100907.63
2022-10-14T03:52:47.089Z,100855.03
2022-10-14T03:55:26.368Z,100883.34
2022-10-14T03:57:54.436Z,100893.09
2022-10-14T04:00:22.697Z,100853.59
2022-10-14T04:03:01.783Z,100867.31
2022-10-14T04:05:35.091Z,100829.75
2022-10-14T04:08:09.464Z,100853.88
2022-10-14T04:10:38.970Z,100897.75
2022-10-14T04:13:07.793Z,100893.84
2022-10-14T04:15:38.566Z,100834.13
2022-10-14T04:18:29.017Z,100860.16
2022-10-14T04:21:06.417Z,100911.47
2022-10-14T04:23:34.906Z,100911.16
2022-10-14T04:26:13.610Z,100855.81
2022-10-14T04:28:41.586Z,100872.78
2022-10-14T04:31:14.688Z,100891.78
2022-10-14T04:33:54.973Z,100843.34
2022-10-14T04:36:30.157Z,100893.41
2022-10-14T04:39:00.297Z,100903.09
2022-10-14T04:41:28.631Z,100894.03
2022-10-14T04:43:58.521Z,100831.94
2022-10-14T04:46:32.231Z,100893.25
2022-10-14T04:49:01.113Z,100862.50
2022-10-14T04:51:34.352Z,100880.28
2022-10-14T04:54:17.862Z,100893.56
2022-10-14T04:56:56.402Z,100869.59
2022-10-14T04:59:25.243Z,100861.69
2022-10-14T05:02:13.063Z,100830.75
2022-10-14T05:05:01.012Z,100884.34
2022-10-14T05:07:32.266Z,100869.16
2022-10-14T05:10:14.475Z,100887.09
2022-10-14T05:12:43.518Z,100895.66
2022-10-14T05:15:12.794Z,100845.31
2022-10-14T05:17:48.556Z,100853.44
2022-10-14T05:20:19.808Z,100906.34
2022-10-14T05:22:51.860Z,100907.09
2022-10-14T05:25:19.662Z,100901.97
2022-10-14T05:27:47.857Z,100899.16
2022-10-14T05:30:15.626Z,100905.38
2022-10-14T05:32:48.172Z,100895.91
2022-10-14T05:35:33.949Z,100896.00
2022-10-14T05:38:06.464Z,100852.50
2022-10-14T05:40:38.118Z,100836.53
2022-10-14T05:43:06.598Z,100826.28
2022-10-14T05:45:37.199Z,100896.00
2022-10-14T05:48:05.582Z,100853.44
2022-10-14T05:50:33.217Z,100851.06
2022-10-14T05:53:06.270Z,100866.53
2022-10-14T05:55:41.930Z,100858.44
2022-10-14T05:58:10.088Z,100890.00
2022-10-14T06:00:41.725Z,100837.34
2022-10-14T06:03:14.361Z,100877.84
2022-10-14T06:05:42.382Z,100829.84
2022-10-14T06:08:10.270Z,100820.75
2022-10-14T06:10:39.675Z,100849.91
2022-10-14T06:13:07.414Z,100886.94
2022-10-14T06:15:38.200Z,100908.16
2022-10-14T06:18:06.614Z,100851.19
2022-10-14T06:20:34.548Z,100861.13
2022-10-14T06:23:02.775Z,100917.41
2022-10-14T06:25:31.233Z,100910.78
2022-10-14T06:28:05.777Z,100903.38
2022-10-14T06:30:33.529Z,100875.97
2022-10-14T06:33:01.490Z,100875.16
2022-10-14T06:35:30.044Z,100827.03
2022-10-14T06:37:58.052Z,100867.38
2022-10-14T06:40:25.800Z,100893.97
2022-10-14T06:42:53.755Z,100916.47
2022-10-14T06:45:21.587Z,100854.50
2022-10-14T06:47:49.532Z,100850.63
2022-10-14T06:50:17.317Z,100915.19
2022-10-14T06:52:48.209Z,100873.53
2022-10-14T06:55:16.742Z,100926.47
2022-10-14T06:57:44.662Z,100915.28
2022-10-14T07:00:12.627Z,100939.88
2022-10-14T07:02:40.384Z,100888.22
2022-10-14T07:05:08.258Z,100939.22
2022-10-14T07:07:36.024Z,100958.47
2022-10-14T07:10:04.053Z,100937.56
2022-10-14T07:12:31.782Z,100943.56
2022-10-14T07:14:59.722Z,100938.41
2022-10-14T07:17:27.396Z,100952.94
2022-10-14T07:19:55.117Z,100949.06
2022-10-14T07:22:23.140Z,100963.44
2022-10-14T07:24:50.983Z,100910.16
2022-10-14T07:27:20.834Z,100968.91
2022-10-14T07:29:48.799Z,100970.06
2022-10-14T07:32:16.329Z,100959.47
2022-10-14T07:34:43.921Z,100976.19
2022-10-14T07:37:11.492Z,100965.41
2022-10-14T07:39:39.177Z,100926.59
2022-10-14T07:42:06.851Z,100946.34
2022-10-14T07:44:34.635Z,100887.50
2022-10-14T07:47:03.382Z,100907.25
2022-10-14T07:49:31.068Z,100977.56
2022-10-14T07:51:58.712Z,100986.47
2022-10-14T07:54:29.418Z,100931.06
2022-10-14T07:56:58.144Z,100982.91
2022-10-14T07:59:25.996Z,100991.78
2022-10-14T08:01:54.416Z,100987.41
2022-10-14T08:04:22.922Z,100974.44
2022-10-14T08:06:51.982Z,100980.91
2022-10-14T08:09:20.209Z,100978.66
2022-10-14T08:11:48.633Z,100989.94
2022-10-14T08:14:16.831Z,100936.19
2022-10-14T08:16:44.512Z,100995.44
2022-10-14T08:19:14.639Z,101000.13
2022-10-14T08:21:43.943Z,101005.59
2022-10-14T08:24:12.356Z,101001.72
2022-10-14T08:26:49.114Z,100959.44
2022-10-14T08:29:16.948Z,100998.38
2022-10-14T08:31:44.877Z,100988.09
2022-10-14T08:34:12.527Z,100993.88
2022-10-14T08:36:40.437Z,101019.53
2022-10-14T08:42:00.675Z,101001.72
2022-10-14T08:44:42.760Z,101031.59
2022-10-14T08:47:21.048Z,101029.78
2022-10-14T08:50:17.670Z,101037.06
2022-10-14T08:52:54.033Z,101038.41
2022-10-14T08:55:36.743Z,101020.31
2022-10-14T08:58:47.532Z,101026.41
2022-10-14T09:01:24.292Z,101028.03
2022-10-14T09:04:05.706Z,101013.34
2022-10-14T09:06:40.954Z,100990.56
2022-10-14T09:09:38.311Z,101029.69
2022-10-14T09:12:12.192Z,101036.16
2022-10-14T09:14:44.720Z,101044.88
2022-10-14T09:17:22.221Z,101017.19
2022-10-14T09:20:05.399Z,101022.69
2022-10-14T09:22:33.027Z,101027.44
2022-10-14T09:25:01.388Z,100973.31
2022-10-14T09:27:30.253Z,101036.16
2022-10-14T09:30:02.199Z,101037.75
2022-10-14T09:32:46.667Z,101029.03
2022-10-14T09:35:20.061Z,101038.25
2022-10-14T09:37:47.733Z,101019.31
2022-10-14T09:40:36.363Z,101027.00
2022-10-14T09:43:10.741Z,101027.06
2022-10-14T09:46:03.205Z,100935.69
2022-10-14T09:48:44.484Z,101018.69
2022-10-14T09:51:22.713Z,101004.16
2022-10-14T09:53:58.421Z,100965.16
2022-10-14T09:56:32.536Z,100990.44
2022-10-14T09:59:01.733Z,100982.63
2022-10-14T10:01:49.236Z,101003.75
2022-10-14T10:04:32.041Z,101006.47
2022-10-14T10:07:02.176Z,100993.97
2022-10-14T10:09:30.021Z,100954.50
2022-10-14T10:11:57.774Z,100991.16
2022-10-14T10:14:34.953Z,100910.84
2022-10-14T10:17:08.876Z,100979.91
2022-10-14T10:19:45.059Z,100958.47
2022-10-14T10:22:24.825Z,101002.66
2022-10-14T10:25:12.614Z,100989.47
2022-10-14T10:27:48.967Z,100973.44
2022-10-14T10:30:28.100Z,100993.50
2022-10-14T10:33:01.962Z,100992.84
2022-10-14T10:36:02.374Z,100963.72
2022-10-14T10:39:02.085Z,100989.78
2022-10-14T10:41:39.002Z,100985.09
2022-10-14T10:44:19.380Z,100999.66
2022-10-14T10:47:15.439Z,100996.59
2022-10-14T10:50:04.775Z,100996.28
2022-10-14T10:52:35.591Z,100999.84
2022-10-14T10:55:18.393Z,100999.84
2022-10-14T10:58:10.607Z,100991.28
2022-10-14T11:01:02.112Z,100998.22
2022-10-14T11:03:56.315Z,100985.25
2022-10-14T11:06:57.231Z,100989.66
2022-10-14T11:10:14.065Z,100994.03
2022-10-14T11:12:49.792Z,100983.50
2022-10-14T11:15:23.504Z,100990.16
2022-10-14T11:18:23.083Z,100991.00
2022-10-14T11:21:30.104Z,100970.16
2022-10-14T11:24:07.140Z,100982.16
2022-10-14T11:26:59.631Z,100970.69
2022-10-14T11:29:50.650Z,100978.16
2022-10-14T11:32:21.991Z,100982.19
2022-10-14T11:35:11.129Z,100972.19
2022-10-14T11:38:05.805Z,100971.06
2022-10-14T11:40:45.739Z,100973.16
2022-10-14T11:43:26.324Z,100921.06
2022-10-14T11:46:02.313Z,100961.88
2022-10-14T11:48:35.936Z,100961.56
2022-10-14T11:51:16.434Z,100950.28
2022-10-14T11:53:46.965Z,100953.84
2022-10-14T11:56:46.839Z,100950.75
2022-10-14T11:59:28.547Z,100904.81
2022-10-14T12:02:09.171Z,100870.97
2022-10-14T12:04:41.165Z,100943.00
2022-10-14T12:07:18.942Z,100918.75
2022-10-14T12:09:57.399Z,100940.75
2022-10-14T12:12:29.732Z,100941.88
2022-10-14T12:15:06.035Z,100908.72
2022-10-14T12:17:49.256Z,100912.59
2022-10-14T12:20:47.986Z,100927.00
2022-10-14T12:23:31.092Z,100886.06
2022-10-14T12:26:24.398Z,100898.22
2022-10-14T12:28:54.558Z,100918.13
2022-10-14T12:31:38.960Z,100920.56
2022-10-14T12:34:13.668Z,100906.81
2022-10-14T12:36:50.867Z,100895.84
2022-10-14T12:39:18.707Z,100907.31
2022-10-14T12:42:10.162Z,100871.59
2022-10-14T12:44:52.730Z,100890.19
2022-10-14T12:47:32.331Z,100874.97
2022-10-14T12:50:03.204Z,100888.56
2022-10-14T12:52:37.267Z,100851.19
2022-10-14T12:55:23.336Z,100898.91
2022-10-14T12:57:56.810Z,100901.97
2022-10-14T13:00:24.404Z,100893.69
2022-10-14T13:03:00.466Z,100853.25
2022-10-14T13:05:42.704Z,100890.16
2022-10-14T13:08:14.879Z,100894.03
2022-10-14T13:10:47.631Z,100888.22
2022-10-14T13:13:52.600Z,100886.59
2022-10-14T13:16:26.563Z,100878.00
2022-10-14T13:18:58.025Z,100878.97
2022-10-14T13:21:37.207Z,100882.25
2022-10-14T13:24:16.898Z,100841.13
2022-10-14T13:26:54.489Z,100874.00
2022-10-14T13:29:33.110Z,100845.00
2022-10-14T13:32:31.146Z,100878.69
2022-10-14T13:35:41.006Z,100875.13
2022-10-14T13:38:19.183Z,100860.22
2022-10-14T13:40:54.360Z,100882.06
2022-10-14T13:43:28.754Z,100874.28
2022-10-14T13:46:08.872Z,100872.69
2022-10-14T13:48:41.066Z,100861.03
2022-10-14T13:51:24.351Z,100864.16
2022-10-14T13:54:20.886Z,100867.19
2022-10-14T14:00:38.813Z,100859.41
2022-10-14T14:02:55.136Z,100852.13
2022-10-14T14:11:23.160Z,100829.88
2022-10-14T14:14:17.220Z,100856.56
2022-10-14T14:16:56.619Z,100843.31
2022-10-14T14:19:29.716Z,100860.28
2022-10-14T14:22:24.686Z,100856.38
2022-10-14T14:24:52.263Z,100799.94
2022-10-14T14:27:23.699Z,100854.16
2022-10-14T14:29:53.785Z,100844.44
2022-10-14T14:32:25.811Z,100830.84
2022-10-14T14:34:54.835Z,100783.97
2022-10-14T14:40:28.094Z,100846.06
2022-10-14T14:43:01.152Z,100829.44
2022-10-14T14:45:32.797Z,100802.88
2022-10-14T14:48:06.888Z,100849.47
2022-10-14T14:50:44.069Z,100819.88
2022-10-14T14:53:30.126Z,100824.56
2022-10-14T14:56:06.869Z,100808.06
2022-10-14T14:58:37.339Z,100853.66
2022-10-14T15:01:16.142Z,100805.31
2022-10-14T15:04:12.979Z,100780.44
2022-10-14T15:06:51.324Z,100839.09
2022-10-14T15:09:30.265Z,100826.97
2022-10-14T15:12:02.018Z,100787.34
2022-10-14T15:14:53.268Z,100823.41
2022-10-14T15:17:39.662Z,100809.38
2022-10-14T15:20:08.222Z,100829.25
2022-10-14T15:22:37.110Z,100831.19
2022-10-14T15:25:25.357Z,100824.06
2022-10-14T15:28:01.008Z,100812.28
2022-10-14T15:30:36.657Z,100820.84
2022-10-14T15:33:25.941Z,100815.19
2022-10-14T15:36:04.105Z,100813.75
2022-10-14T15:40:59.498Z,100806.31
2022-10-14T15:43:28.022Z,100806.31
2022-10-14T15:46:18.636Z,100819.88
2022-10-14T15:48:49.963Z,100784.47
2022-10-14T15:51:19.959Z,100792.84
2022-10-14T15:53:49.242Z,100807.75
2022-10-14T15:56:17.446Z,100807.25
2022-10-14T15:58:45.101Z,100789.63
2022-10-14T16:01:21.857Z,100809.50
2022-10-14T16:03:52.466Z,100818.09
2022-10-14T16:06:22.847Z,100792.03
2022-10-14T16:08:50.956Z,100802.22
2022-10-14T16:11:29.954Z,100818.72
2022-10-14T16:13:57.838Z,100802.56
2022-10-14T16:16:32.820Z,100821.00
2022-10-14T16:19:03.725Z,100770.06
2022-10-14T16:21:32.185Z,100819.34
2022-10-14T16:24:02.329Z,100832.44
2022-10-14T16:26:31.249Z,100793.03
2022-10-14T16:29:00.444Z,100824.38
2022-10-14T16:31:28.344Z,100787.69
2022-10-14T16:33:56.082Z,100827.44
2022-10-14T16:36:26.524Z,100824.03
2022-10-14T16:38:57.204Z,100794.97
2022-10-14T16:41:28.015Z,100783.47
2022-10-14T16:43:55.731Z,100825.03
2022-10-14T16:46:46.084Z,100790.44
2022-10-14T16:49:14.389Z,100828.75
2022-10-14T16:51:43.413Z,100799.94
2022-10-14T16:54:12.335Z,100814.53
2022-10-14T16:56:53.431Z,100822.94
2022-10-14T16:59:22.085Z,100827.47
2022-10-14T17:01:51.199Z,100787.69
2022-10-14T17:04:22.931Z,100770.53
2022-10-14T17:06:58.642Z,100833.94
2022-10-14T17:09:26.417Z,100837.31
2022-10-14T17:11:54.948Z,100787.84
2022-10-14T17:14:24.275Z,100777.81
2022-10-14T17:16:52.572Z,100831.00
2022-10-14T17:19:20.507Z,100810.63
2022-10-14T17:21:49.983Z,100823.06
2022-10-14T17:24:17.835Z,100825.31
2022-10-14T17:26:45.792Z,100795.25
2022-10-14T17:29:13.343Z,100827.75
2022-10-14T17:31:42.037Z,100826.59
2022-10-14T17:34:10.746Z,100785.75
2022-10-14T17:36:40.306Z,100819.50
2022-10-14T17:39:16.379Z,100836.31
2022-10-14T17:41:49.033Z,100789.94
2022-10-14T17:44:16.664Z,100822.09
2022-10-14T17:46:45.030Z,100839.75
2022-10-14T17:49:13.204Z,100788.66
2022-10-14T17:51:40.925Z,100805.78
2022-10-14T17:54:12.656Z,100843.63
2022-10-14T17:56:41.135Z,100843.63
2022-10-14T17:59:11.561Z,100855.75
2022-10-14T18:04:27.992Z,100842.16
2022-10-14T18:06:56.067Z,100773.13
2022-10-14T18:09:23.794Z,100841.19
2022-10-14T18:14:40.755Z,100805.44
2022-10-14T18:17:12.685Z,100849.91
2022-10-14T18:19:41.541Z,100861.25
2022-10-14T18:22:11.303Z,100839.06
2022-10-14T18:24:40.769Z,100866.75
2022-10-14T18:27:08.836Z,100853.78
2022-10-14T18:29:36.603Z,100849.56
2022-10-14T18:32:05.952Z,100878.53
2022-10-14T18:34:34.214Z,100860.56
2022-10-14T18:37:02.009Z,100863.97
2022-10-14T18:39:30.012Z,100876.94
2022-10-14T18:41:57.992Z,100817.06
2022-10-14T18:44:26.028Z,100809.97
2022-10-14T18:46:53.695Z,100842.47
2022-10-14T18:49:21.362Z,100813.69
2022-10-14T18:51:49.462Z,100878.88
2022-10-14T18:54:20.468Z,100868.69
2022-10-14T18:56:48.244Z,100854.78
2022-10-14T18:59:22.261Z,100876.28
2022-10-14T19:01:53.437Z,100873.53
2022-10-14T19:04:23.873Z,100879.03
2022-10-14T19:06:53.544Z,100848.28
2022-10-14T19:09:29.183Z,100866.41
2022-10-14T19:12:01.670Z,100878.22
2022-10-14T19:14:32.015Z,100871.91
2022-10-14T19:16:59.699Z,100842.00
2022-10-14T19:19:27.310Z,100854.16
2022-10-14T19:21:56.571Z,100849.09
2022-10-14T19:24:27.368Z,100871.91
2022-10-14T19:26:56.003Z,100874.34
2022-10-14T19:29:23.905Z,100794.78
2022-10-14T19:31:54.688Z,100772.16
2022-10-14T19:34:26.705Z,100862.53
2022-10-14T19:36:57.621Z,100875.47
2022-10-14T19:39:26.097Z,100847.47
2022-10-14T19:41:53.903Z,100876.59
2022-10-14T19:44:21.810Z,100882.91
2022-10-14T19:46:49.907Z,100862.50
2022-10-14T19:49:18.904Z,100845.69
2022-10-14T19:51:50.180Z,100815.94
2022-10-14T19:54:17.805Z,100827.13
2022-10-14T19:56:45.840Z,100875.13
2022-10-14T19:59:14.541Z,100870.78
2022-10-14T20:01:43.107Z,100882.56
2022-10-14T20:04:10.866Z,100865.13
2022-10-14T20:06:40.190Z,100888.56
2022-10-14T20:09:08.879Z,100897.94
2022-10-14T20:11:39.265Z,100874.66
2022-10-14T20:14:07.369Z,100856.53
2022-10-14T20:16:35.171Z,100893.75
2022-10-14T20:19:04.572Z,100885.78
2022-10-14T20:21:32.344Z,100895.69
2022-10-14T20:24:00.340Z,100885.16
2022-10-14T20:26:28.335Z,100876.75
2022-10-14T20:28:58.029Z,100898.44
2022-10-14T20:31:25.638Z,100848.75
2022-10-14T20:33:56.358Z,100842.16
2022-10-14T20:36:25.293Z,100870.31
2022-10-14T20:38:53.121Z,100859.78
2022-10-14T20:41:26.703Z,100866.28
2022-10-14T20:43:55.746Z,100873.19
2022-10-14T20:46:25.208Z,100877.09
2022-10-14T20:48:57.830Z,100857.69
2022-10-14T20:51:26.547Z,100868.22
2022-10-14T20:54:00.856Z,100881.13
2022-10-14T20:56:33.439Z,100871.25
2022-10-14T20:59:06.088Z,100863.81
2022-10-14T21:01:35.759Z,100870.94
2022-10-14T21:04:07.741Z,100819.97
2022-10-14T21:06:36.413Z,100864.47
2022-10-14T21:09:04.624Z,100842.94
2022-10-14T21:11:32.408Z,100857.00
2022-10-14T21:14:00.991Z,100716.38
2022-10-14T21:16:32.700Z,100804.31
2022-10-14T21:19:05.890Z,100858.19
2022-10-14T21:21:38.166Z,100869.03
2022-10-14T21:24:08.727Z,100852.50
2022-10-14T21:26:37.815Z,100807.88
2022-10-14T21:29:06.433Z,100877.88
2022-10-14T21:31:34.364Z,100866.09
2022-10-14T21:34:06.013Z,100875.00
2022-10-14T21:36:35.897Z,100811.25
2022-10-14T21:39:11.667Z,100780.22
2022-10-14T21:41:41.097Z,100817.56
2022-10-14T21:44:11.009Z,100846.34
2022-10-14T21:46:38.879Z,100823.69
2022-10-14T21:49:06.532Z,100781.19
2022-10-14T21:51:34.255Z,100845.22
2022-10-14T21:54:02.461Z,100803.81
2022-10-14T21:56:30.802Z,100815.00
2022-10-14T21:58:59.453Z,100814.34
2022-10-14T22:01:29.958Z,100837.44
2022-10-14T22:04:04.065Z,100852.50
2022-10-14T22:06:33.713Z,100857.19
2022-10-14T22:09:03.933Z,100826.59
2022-10-14T22:11:34.467Z,100853.63
2022-10-14T22:14:05.361Z,100850.41
2022-10-14T22:16:33.616Z,100855.56
2022-10-14T22:19:03.311Z,100854.78
2022-10-14T22:21:32.758Z,100828.25
2022-10-14T22:24:01.905Z,100798.97
2022-10-14T22:26:30.535Z,100850.41
2022-10-14T22:29:04.520Z,100855.91
2022-10-14T22:31:34.310Z,100848.75
2022-10-14T22:34:04.669Z,100838.91
2022-10-14T22:36:34.147Z,100837.13
2022-10-14T22:39:05.515Z,100835.69
2022-10-14T22:41:35.952Z,100843.94
2022-10-14T22:44:05.725Z,100803.03
2022-10-14T22:46:35.305Z,100842.28
2022-10-14T22:49:04.375Z,100793.50
2022-10-14T22:51:38.058Z,100839.53
2022-10-14T22:54:05.753Z,100810.13
2022-10-14T22:56:33.626Z,100832.75
2022-10-14T22:59:04.400Z,100814.66
2022-10-14T23:01:32.925Z,100788.81
2022-10-14T23:04:01.154Z,100771.00
2022-10-14T23:06:30.453Z,100805.28
2022-10-14T23:09:00.709Z,100829.06
2022-10-14T23:11:30.499Z,100820.00
2022-10-14T23:14:00.313Z,100813.38
2022-10-14T23:16:30.784Z,100797.06
2022-10-14T23:18:59.383Z,100814.53
2022-10-14T23:21:29.944Z,100807.91
2022-10-14T23:24:00.043Z,100761.03
2022-10-14T23:26:31.762Z,100811.78
2022-10-14T23:29:00.381Z,100776.03
2022-10-14T23:31:30.645Z,100751.50
2022-10-14T23:34:00.035Z,100767.31
2022-10-14T23:36:28.251Z,100753.94
2022-10-14T23:38:55.893Z,100782.03
2022-10-14T23:41:24.400Z,100728.56
2022-10-14T23:43:52.868Z,100766.84
2022-10-14T23:46:21.148Z,100769.91
2022-10-14T23:49:00.694Z,100792.38
2022-10-14T23:51:35.781Z,100799.66
2022-10-14T23:54:04.130Z,100802.41
2022-10-14T23:56:31.814Z,100729.69
2022-10-14T23:58:59.529Z,100793.34
